Time;durP1;ratioP1;P1;durP2;ratioP2;P2;SDS_P1;SDS_P2;PMS_P1;PMS_P2;Temp;Humidity;BMP_temperature;BMP_pressure;BME280_temperature;BME280_humidity;BME280_pressure;Samples;Min_cycle;Max_cycle;Signal;HPM_P1;HPM_P2
2024/01/05 00:01:05;;;;;;;0.10;0.10;;;;;;;16.11;55.73;99864.78;5048843;28;20044;-74
2024/01/05 00:03:31;;;;;;;0.00;0.00;;;;;;;15.86;58.77;99867.72;5062961;28;20036;-74
2024/01/05 00:05:56;;;;;;;0.00;0.00;;;;;;;15.64;59.27;99859.09;5073536;28;20039;-75
2024/01/05 00:08:22;;;;;;;0.00;0.00;;;;;;;16.20;56.84;99857.38;5068092;28;20074;-74
2024/01/05 00:10:47;;;;;;;0.00;0.00;;;;;;;15.95;57.97;99863.81;5051069;28;20040;-74
2024/01/05 00:13:12;;;;;;;0.13;0.13;;;;;;;16.01;57.39;99858.25;5058846;28;20035;-74
2024/01/05 00:15:38;;;;;;;0.10;0.10;;;;;;;16.02;57.28;99841.50;5071667;28;20031;-74
2024/01/05 00:18:05;;;;;;;0.90;0.90;;;;;;;16.04;57.73;99852.81;5059588;28;20024;-74
2024/01/05 00:20:30;;;;;;;0.00;0.00;;;;;;;15.93;57.45;99841.94;5073024;28;20103;-74
2024/01/05 00:22:56;;;;;;;0.00;0.00;;;;;;;16.02;57.86;99841.50;5065610;28;20115;-74
2024/01/05 00:25:21;;;;;;;0.10;0.10;;;;;;;15.23;60.04;99841.63;5055460;28;20025;-74
2024/01/05 00:27:47;;;;;;;0.33;0.33;;;;;;;15.42;59.94;99841.66;5049191;28;20029;-74
2024/01/05 00:30:13;;;;;;;0.20;0.20;;;;;;;16.35;56.38;99832.88;5052882;28;20066;-74
2024/01/05 00:32:39;;;;;;;0.00;0.00;;;;;;;15.85;57.74;99833.53;5052887;28;20480;-74
2024/01/05 00:35:04;;;;;;;0.20;0.20;;;;;;;15.37;60.22;99831.34;5060747;28;20481;-74
2024/01/05 00:37:30;;;;;;;0.00;0.00;;;;;;;15.85;58.07;99823.00;5050309;28;20470;-74
2024/01/05 00:39:55;;;;;;;0.00;0.00;;;;;;;16.43;56.00;99825.44;5070861;28;20036;-75
2024/01/05 00:42:21;;;;;;;0.00;0.00;;;;;;;16.28;55.97;99818.28;5071630;28;20028;-74
2024/01/05 00:44:46;;;;;;;0.20;0.20;;;;;;;16.39;56.75;99813.31;5050322;28;20025;-74
2024/01/05 00:47:12;;;;;;;1.83;1.00;;;;;;;16.68;55.71;99812.75;5050909;28;20055;-75
2024/01/05 00:49:37;;;;;;;0.00;0.00;;;;;;;16.68;54.65;99810.97;5066332;28;20109;-74
2024/01/05 00:52:04;;;;;;;0.00;0.00;;;;;;;16.45;55.43;99807.72;5052266;28;20393;-74
2024/01/05 00:54:29;;;;;;;0.00;0.00;;;;;;;16.20;56.95;99807.28;5061655;28;20105;-74
2024/01/05 00:56:55;;;;;;;0.57;0.50;;;;;;;16.60;55.30;99799.97;5050436;28;20116;-74
2024/01/05 00:59:20;;;;;;;0.00;0.00;;;;;;;15.96;57.09;99799.63;5057480;28;20440;-74
2024/01/05 01:01:46;;;;;;;0.40;0.40;;;;;;;16.57;55.73;99794.88;5043917;28;20389;-74
2024/01/05 01:04:11;;;;;;;0.63;0.63;;;;;;;16.53;56.11;99799.44;5077981;28;20035;-74
2024/01/05 01:06:37;;;;;;;3.13;1.07;;;;;;;16.86;54.45;99790.69;5054619;28;20028;-75
2024/01/05 01:09:02;;;;;;;0.00;0.00;;;;;;;16.59;55.32;99782.44;5059567;28;20032;-74
2024/01/05 01:11:31;;;;;;;0.60;0.60;;;;;;;17.27;53.92;99789.47;5053732;28;20017;-74
2024/01/05 01:13:57;;;;;;;0.10;0.10;;;;;;;17.18;53.65;99777.59;5058660;28;20067;-75
2024/01/05 01:16:22;;;;;;;1.27;1.27;;;;;;;16.91;54.31;99772.88;5057166;28;20044;-74
2024/01/05 01:18:47;;;;;;;0.00;0.00;;;;;;;17.62;53.15;99773.44;5058078;28;20073;-74
2024/01/05 01:21:13;;;;;;;0.50;0.23;;;;;;;17.05;53.87;99771.25;5066029;28;20028;-74
2024/01/05 01:23:38;;;;;;;0.00;0.00;;;;;;;16.93;54.11;99759.59;5055425;28;20032;-75
2024/01/05 01:26:04;;;;;;;0.00;0.00;;;;;;;17.06;53.04;99750.09;5053951;28;20021;-74
2024/01/05 01:28:30;;;;;;;0.00;0.00;;;;;;;17.44;52.94;99744.47;5053066;28;20039;-74
2024/01/05 01:30:56;;;;;;;0.00;0.00;;;;;;;17.63;52.77;99746.06;5052967;28;20052;-74
2024/01/05 01:33:22;;;;;;;1.33;0.83;;;;;;;17.50;53.35;99739.78;5052562;28;20104;-74
2024/01/05 01:35:47;;;;;;;0.00;0.00;;;;;;;17.15;53.87;99729.41;5057265;28;20115;-74
2024/01/05 01:38:12;;;;;;;0.00;0.00;;;;;;;16.38;56.66;99740.41;5049587;28;20021;-74
2024/01/05 01:40:38;;;;;;;0.20;0.20;;;;;;;17.64;53.42;99729.28;5054498;28;20059;-74
2024/01/05 01:43:03;;;;;;;0.47;0.20;;;;;;;16.61;55.79;99733.09;5045974;28;20029;-74
2024/01/05 01:45:30;;;;;;;0.00;0.00;;;;;;;17.21;53.62;99721.13;5053502;28;20075;-74
2024/01/05 01:47:56;;;;;;;0.00;0.00;;;;;;;16.67;55.43;99724.84;5030400;28;20059;-74
2024/01/05 01:50:24;;;;;;;0.00;0.00;;;;;;;17.37;53.27;99721.97;5052208;28;20049;-74
2024/01/05 01:52:49;;;;;;;0.00;0.00;;;;;;;16.63;55.30;99715.38;5051082;28;20036;-74
2024/01/05 01:55:16;;;;;;;0.00;0.00;;;;;;;16.57;55.85;99707.81;5059314;28;20029;-74
2024/01/05 01:57:42;;;;;;;0.00;0.00;;;;;;;16.63;55.25;99704.84;5050312;28;20029;-74
2024/01/05 02:00:09;;;;;;;0.00;0.00;;;;;;;16.88;55.02;99699.09;5050392;28;20021;-74
2024/01/05 02:02:36;;;;;;;0.00;0.00;;;;;;;16.39;55.84;99692.00;5049980;28;20384;-74
2024/01/05 02:05:02;;;;;;;0.00;0.00;;;;;;;16.51;55.71;99689.66;5062465;28;20077;-74
2024/01/05 02:07:27;;;;;;;0.00;0.00;;;;;;;16.65;55.53;99678.38;5069777;28;20028;-74
2024/01/05 02:09:53;;;;;;;0.10;0.10;;;;;;;16.96;54.55;99680.22;5057176;28;20056;-74
2024/01/05 02:12:18;;;;;;;3.03;2.77;;;;;;;16.58;55.71;99670.78;5049753;28;20484;-74
2024/01/05 02:14:44;;;;;;;0.00;0.00;;;;;;;16.10;57.34;99660.09;5047169;28;20029;-74
2024/01/05 02:17:33;;;;;;;0.00;0.00;;;;;;;16.81;55.55;99654.66;5058629;28;20029;-74
2024/01/05 02:19:59;;;;;;;0.00;0.00;;;;;;;17.63;53.29;99656.25;5070893;28;20020;-74
2024/01/05 02:22:32;;;;;;;0.00;0.00;;;;;;;16.84;54.83;99651.84;5049316;28;20025;-74
2024/01/05 02:24:58;;;;;;;0.00;0.00;;;;;;;17.59;53.11;99649.44;5056374;28;20035;-74
2024/01/05 02:27:24;;;;;;;12.23;2.13;;;;;;;16.45;55.73;99646.00;5050445;28;20076;-74
2024/01/05 02:29:49;;;;;;;0.00;0.00;;;;;;;16.41;56.79;99655.84;5057167;28;20033;-74
2024/01/05 02:32:15;;;;;;;0.00;0.00;;;;;;;16.53;56.15;99646.44;5070169;28;20094;-74
2024/01/05 02:34:41;;;;;;;0.00;0.00;;;;;;;16.42;56.91;99639.09;5063781;28;20028;-74
2024/01/05 02:37:06;;;;;;;0.00;0.00;;;;;;;16.34;56.77;99643.94;5065555;28;20500;-74
2024/01/05 02:39:32;;;;;;;0.10;0.10;;;;;;;16.02;57.58;99635.94;5052013;28;20546;-74
2024/01/05 02:41:57;;;;;;;13.43;0.93;;;;;;;16.18;57.59;99629.84;5066197;28;20396;-74
2024/01/05 02:44:22;;;;;;;0.00;0.00;;;;;;;16.64;55.80;99616.84;5049412;28;20036;-73
2024/01/05 02:46:48;;;;;;;0.00;0.00;;;;;;;17.06;54.63;99627.78;5049365;28;20682;-73
2024/01/05 02:49:13;;;;;;;0.00;0.00;;;;;;;16.92;54.75;99620.63;5042807;28;20577;-74
2024/01/05 02:51:39;;;;;;;0.00;0.00;;;;;;;17.31;54.31;99614.06;5056954;28;20037;-74
2024/01/05 02:54:05;;;;;;;0.00;0.00;;;;;;;17.11;53.70;99613.38;5048928;28;20035;-74
2024/01/05 02:56:33;;;;;;;0.57;0.20;;;;;;;17.16;54.01;99607.00;5054619;28;20132;-74
2024/01/05 02:58:59;;;;;;;0.47;0.47;;;;;;;16.71;55.87;99606.81;5048214;28;20021;-74
2024/01/05 03:01:24;;;;;;;0.00;0.00;;;;;;;16.57;56.21;99595.22;5051050;28;20127;-74
2024/01/05 03:03:50;;;;;;;0.00;0.00;;;;;;;16.63;56.18;99599.31;5046953;28;20440;-74
2024/01/05 03:06:16;;;;;;;0.00;0.00;;;;;;;17.01;54.43;99606.94;5062791;28;20033;-74
2024/01/05 03:08:43;;;;;;;0.00;0.00;;;;;;;17.03;54.57;99597.13;5048865;28;20021;-74
2024/01/05 03:11:08;;;;;;;0.10;0.10;;;;;;;16.63;55.42;99572.94;5053272;28;20021;-74
2024/01/05 03:13:34;;;;;;;0.00;0.00;;;;;;;17.27;53.71;99578.19;5064687;28;20072;-73
2024/01/05 03:16:00;;;;;;;0.00;0.00;;;;;;;17.55;52.93;99580.06;5061879;28;20032;-74
2024/01/05 03:18:25;;;;;;;0.00;0.00;;;;;;;17.19;53.25;99583.06;5053233;28;20032;-74
2024/01/05 03:20:51;;;;;;;0.00;0.00;;;;;;;17.57;53.24;99587.91;5047715;28;20033;-74
2024/01/05 03:23:16;;;;;;;0.00;0.00;;;;;;;17.35;53.97;99581.25;5046278;28;20024;-74
2024/01/05 03:25:43;;;;;;;0.00;0.00;;;;;;;17.67;52.61;99586.44;5057136;28;20112;-74
2024/01/05 03:28:10;;;;;;;0.00;0.00;;;;;;;17.47;53.16;99574.38;5084968;28;20025;-74
2024/01/05 03:30:36;;;;;;;0.00;0.00;;;;;;;16.80;54.82;99574.63;5062020;28;20492;-74
2024/01/05 03:33:02;;;;;;;0.00;0.00;;;;;;;17.15;53.87;99574.47;5048760;28;20033;-75
2024/01/05 03:35:27;;;;;;;0.00;0.00;;;;;;;17.29;53.57;99560.47;5053755;28;20082;-75
2024/01/05 03:37:53;;;;;;;0.00;0.00;;;;;;;18.13;51.80;99551.97;5052174;28;20487;-75
2024/01/05 03:40:18;;;;;;;0.00;0.00;;;;;;;18.28;50.75;99541.34;5057452;28;20016;-74
2024/01/05 03:42:44;;;;;;;0.00;0.00;;;;;;;17.71;52.48;99540.38;5068159;28;20035;-75
2024/01/05 03:45:09;;;;;;;0.00;0.00;;;;;;;17.94;52.10;99535.50;5055800;28;20400;-75
2024/01/05 03:47:34;;;;;;;0.00;0.00;;;;;;;17.77;51.81;99523.31;5067175;28;20040;-74
2024/01/05 03:50:00;;;;;;;0.00;0.00;;;;;;;17.16;52.97;99538.34;5051494;28;20047;-74
2024/01/05 03:52:25;;;;;;;0.13;0.13;;;;;;;16.58;55.31;99528.34;5053961;28;20025;-75
2024/01/05 03:54:50;;;;;;;0.00;0.00;;;;;;;16.67;54.08;99521.72;5050790;28;20017;-74
2024/01/05 03:57:16;;;;;;;0.00;0.00;;;;;;;17.17;53.05;99516.28;5071754;28;20023;-73
2024/01/05 03:59:44;;;;;;;0.00;0.00;;;;;;;16.82;54.54;99511.25;5072041;28;20020;-73
2024/01/05 04:02:09;;;;;;;0.00;0.00;;;;;;;17.19;53.31;99509.16;5054843;28;20025;-74
2024/01/05 04:04:35;;;;;;;0.00;0.00;;;;;;;17.34;52.39;99494.16;5051206;28;20293;-73
2024/01/05 04:07:00;;;;;;;0.00;0.00;;;;;;;17.26;52.74;99486.72;5069549;28;20252;-74
2024/01/05 04:09:25;;;;;;;0.10;0.10;;;;;;;17.46;52.35;99488.16;5053826;28;20037;-74
2024/01/05 04:11:51;;;;;;;0.00;0.00;;;;;;;17.59;51.51;99485.63;5067526;28;20031;-74
2024/01/05 04:14:17;;;;;;;0.00;0.00;;;;;;;17.31;52.89;99476.72;5058319;28;20032;-74
2024/01/05 04:16:42;;;;;;;0.00;0.00;;;;;;;17.66;51.28;99468.47;5059828;28;20029;-74
2024/01/05 04:19:08;;;;;;;0.00;0.00;;;;;;;17.15;52.25;99473.31;5052231;28;20403;-74
2024/01/05 04:21:34;;;;;;;0.00;0.00;;;;;;;16.69;53.04;99472.34;5064236;28;20020;-74
2024/01/05 04:23:59;;;;;;;0.00;0.00;;;;;;;17.87;50.63;99460.16;5053476;28;20035;-74
2024/01/05 04:26:25;;;;;;;0.00;0.00;;;;;;;17.32;51.21;99459.94;5062599;28;20107;-74
2024/01/05 04:28:51;;;;;;;0.00;0.00;;;;;;;18.21;49.78;99452.78;5071353;28;20448;-74
2024/01/05 04:31:16;;;;;;;0.00;0.00;;;;;;;17.60;50.72;99450.34;5062783;28;20037;-73
2024/01/05 04:33:41;;;;;;;0.40;0.40;;;;;;;17.95;50.12;99458.75;5048787;28;20026;-74
2024/01/05 04:36:07;;;;;;;0.00;0.00;;;;;;;16.53;53.65;99461.81;5061383;28;20028;-74
2024/01/05 04:38:34;;;;;;;0.00;0.00;;;;;;;16.84;53.02;99460.03;5051282;28;20025;-74
2024/01/05 04:41:00;;;;;;;0.00;0.00;;;;;;;17.39;51.41;99450.72;5046508;28;20074;-74
2024/01/05 04:43:26;;;;;;;0.00;0.00;;;;;;;17.25;52.37;99443.59;5067301;28;20098;-74
2024/01/05 04:45:51;;;;;;;0.00;0.00;;;;;;;17.93;51.05;99438.66;5055712;28;20426;-74
2024/01/05 04:48:16;;;;;;;0.00;0.00;;;;;;;17.75;51.14;99436.19;5056024;28;20025;-74
2024/01/05 04:50:42;;;;;;;0.00;0.00;;;;;;;17.37;51.10;99441.19;5054886;28;20031;-75
2024/01/05 04:53:07;;;;;;;0.00;0.00;;;;;;;16.97;52.30;99439.13;5056549;28;20040;-74
2024/01/05 04:55:33;;;;;;;0.00;0.00;;;;;;;16.34;54.38;99446.19;5051216;28;20128;-74
2024/01/05 04:57:58;;;;;;;0.00;0.00;;;;;;;16.86;53.07;99436.25;5071503;28;20484;-74
2024/01/05 05:00:25;;;;;;;0.43;0.43;;;;;;;15.67;55.41;99442.78;5070220;28;20025;-74
2024/01/05 05:02:51;;;;;;;0.00;0.00;;;;;;;15.93;54.82;99446.66;5067487;28;20033;-74
2024/01/05 05:05:16;;;;;;;0.00;0.00;;;;;;;15.56;55.58;99440.69;5050707;28;20035;-74
2024/01/05 05:07:42;;;;;;;0.00;0.00;;;;;;;16.94;52.63;99432.22;5047559;28;20029;-74
2024/01/05 05:10:08;;;;;;;0.77;0.77;;;;;;;15.72;55.43;99444.22;5051293;28;20483;-74
2024/01/05 05:12:33;;;;;;;0.00;0.00;;;;;;;14.69;58.62;99442.44;5064264;28;20461;-73
2024/01/05 05:14:59;;;;;;;0.00;0.00;;;;;;;14.88;57.71;99452.91;5050692;28;20059;-74
2024/01/05 05:17:24;;;;;;;0.00;0.00;;;;;;;14.89;56.64;99459.88;5067471;28;20038;-74
2024/01/05 05:19:54;;;;;;;0.00;0.00;;;;;;;14.78;56.86;99456.06;5057817;28;20036;-74
2024/01/05 05:22:23;;;;;;;0.00;0.00;;;;;;;14.99;54.31;99444.50;5051713;28;20052;-75
2024/01/05 05:24:50;;;;;;;0.00;0.00;;;;;;;14.98;54.59;99450.66;5050239;28;20456;-75
2024/01/05 05:27:16;;;;;;;0.00;0.00;;;;;;;14.66;54.86;99441.75;5057510;28;20523;-75
2024/01/05 05:29:41;;;;;;;0.00;0.00;;;;;;;15.23;53.57;99438.91;5031903;28;20056;-75
2024/01/05 05:32:07;;;;;;;0.00;0.00;;;;;;;14.32;54.75;99444.19;5058132;28;20060;-75
2024/01/05 05:34:32;;;;;;;0.00;0.00;;;;;;;14.66;54.02;99447.88;5054828;28;20025;-74
2024/01/05 05:36:57;;;;;;;0.00;0.00;;;;;;;14.39;54.15;99434.25;5054214;28;20112;-75
2024/01/05 05:39:24;;;;;;;0.00;0.00;;;;;;;14.56;52.59;99425.53;5072277;28;20024;-75
2024/01/05 05:41:49;;;;;;;0.00;0.00;;;;;;;14.59;52.53;99433.28;5059069;28;20029;-75
2024/01/05 05:44:14;;;;;;;0.00;0.00;;;;;;;15.28;51.30;99421.09;5050505;28;20048;-75
2024/01/05 05:46:40;;;;;;;0.00;0.00;;;;;;;15.47;51.05;99421.00;5058578;28;20035;-74
2024/01/05 05:49:06;;;;;;;0.00;0.00;;;;;;;16.17;49.71;99417.25;5069622;28;20105;-75
2024/01/05 05:51:32;;;;;;;0.00;0.00;;;;;;;16.04;49.14;99420.56;5058627;28;20025;-74
2024/01/05 05:53:58;;;;;;;0.00;0.00;;;;;;;15.94;50.27;99427.31;5048805;28;20044;-74
2024/01/05 05:56:23;;;;;;;0.00;0.00;;;;;;;15.63;50.79;99428.91;5055267;28;20043;-74
2024/01/05 05:58:49;;;;;;;0.00;0.00;;;;;;;15.63;50.63;99439.44;5067375;28;20119;-74
2024/01/05 06:01:16;;;;;;;0.10;0.10;;;;;;;15.86;51.98;99440.03;5055835;28;20064;-75
2024/01/05 06:03:42;;;;;;;0.00;0.00;;;;;;;16.16;51.04;99436.66;5049876;28;20128;-74
2024/01/05 06:06:19;;;;;;;0.00;0.00;;;;;;;15.99;51.60;99438.44;5049847;28;20103;-74
2024/01/05 06:08:44;;;;;;;0.00;0.00;;;;;;;15.27;53.10;99437.81;5069517;28;20480;-74
2024/01/05 06:11:12;;;;;;;0.00;0.00;;;;;;;14.63;53.65;99442.75;5061341;28;20036;-74
2024/01/05 06:13:37;;;;;;;11.33;1.23;;;;;;;14.39;54.39;99435.09;5048700;28;20029;-74
2024/01/05 06:16:02;;;;;;;0.00;0.00;;;;;;;14.49;54.67;99429.38;5049279;28;20052;-74
2024/01/05 06:18:29;;;;;;;0.00;0.00;;;;;;;15.16;52.63;99435.72;5086579;28;20024;-74
2024/01/05 06:20:54;;;;;;;0.00;0.00;;;;;;;15.03;52.27;99438.16;5054234;28;20481;-75
2024/01/05 06:23:20;;;;;;;0.00;0.00;;;;;;;14.51;53.97;99438.06;5053559;28;20029;-75
2024/01/05 06:25:45;;;;;;;0.50;0.50;;;;;;;14.48;55.29;99440.81;5048703;28;20071;-74
2024/01/05 06:28:10;;;;;;;0.00;0.00;;;;;;;14.88;54.03;99433.66;5066546;28;20032;-75
2024/01/05 06:30:36;;;;;;;0.00;0.00;;;;;;;14.68;54.36;99437.28;5070055;28;20055;-74
2024/01/05 06:33:01;;;;;;;0.00;0.00;;;;;;;13.73;56.37;99440.78;5054247;28;20521;-74
2024/01/05 06:35:26;;;;;;;0.00;0.00;;;;;;;13.33;57.54;99446.00;5049071;28;20082;-74
2024/01/05 06:37:52;;;;;;;0.00;0.00;;;;;;;13.63;57.74;99435.13;5061001;28;20085;-74
2024/01/05 06:40:17;;;;;;;0.00;0.00;;;;;;;13.80;57.67;99436.97;5054922;28;20024;-74
2024/01/05 06:42:43;;;;;;;0.30;0.30;;;;;;;13.53;56.71;99425.94;5039780;28;20026;-74
2024/01/05 06:45:09;;;;;;;0.00;0.00;;;;;;;14.81;55.08;99419.09;5053116;28;20484;-74
2024/01/05 06:47:34;;;;;;;0.00;0.00;;;;;;;14.54;55.15;99428.25;5052344;28;20036;-74
2024/01/05 06:50:00;;;;;;;0.00;0.00;;;;;;;14.07;55.65;99423.50;5048274;28;20045;-75
2024/01/05 06:52:25;;;;;;;0.00;0.00;;;;;;;13.60;57.50;99426.50;5055961;28;20107;-73
2024/01/05 06:54:50;;;;;;;0.00;0.00;;;;;;;13.59;57.75;99428.28;5053205;28;20051;-74
2024/01/05 06:57:17;;;;;;;0.00;0.00;;;;;;;13.69;57.10;99419.06;5047016;28;20412;-74
2024/01/05 06:59:42;;;;;;;0.10;0.10;;;;;;;14.35;55.05;99420.38;5050853;28;20028;-74
2024/01/05 07:02:07;;;;;;;0.00;0.00;;;;;;;14.71;54.33;99414.31;5046067;28;20029;-74
2024/01/05 07:04:33;;;;;;;0.00;0.00;;;;;;;14.29;54.67;99414.56;5048981;28;20439;-74
2024/01/05 07:06:58;;;;;;;0.07;0.07;;;;;;;14.58;54.27;99406.13;5048706;28;20029;-74
2024/01/05 07:09:24;;;;;;;0.00;0.00;;;;;;;14.85;52.81;99415.38;5062709;28;20074;-75
2024/01/05 07:11:51;;;;;;;0.00;0.00;;;;;;;15.25;52.79;99408.09;5042875;28;20025;-75
2024/01/05 07:14:17;;;;;;;0.00;0.00;;;;;;;15.02;52.58;99418.00;5028042;28;20068;-75
2024/01/05 07:16:43;;;;;;;0.03;0.03;;;;;;;15.02;53.38;99411.91;5042950;28;20053;-75
2024/01/05 07:19:08;;;;;;;0.00;0.00;;;;;;;14.67;54.59;99412.75;5049218;28;20039;-76
2024/01/05 07:21:40;;;;;;;0.13;0.13;;;;;;;15.14;53.52;99402.53;5047985;28;20025;-75
2024/01/05 07:24:06;;;;;;;0.00;0.00;;;;;;;14.85;54.88;99416.25;5047431;28;20044;-75
2024/01/05 07:26:32;;;;;;;0.00;0.00;;;;;;;14.36;54.82;99413.38;5046497;28;20060;-74
2024/01/05 07:28:58;;;;;;;0.00;0.00;;;;;;;14.41;54.92;99412.22;5054162;28;20032;-75
2024/01/05 07:31:23;;;;;;;0.00;0.00;;;;;;;14.29;55.28;99407.56;5049550;28;20025;-75
2024/01/05 07:33:49;;;;;;;0.00;0.00;;;;;;;15.06;54.16;99409.03;5047694;28;20550;-76
2024/01/05 07:36:14;;;;;;;0.00;0.00;;;;;;;14.84;54.24;99409.28;5065043;28;20542;-75
2024/01/05 07:38:39;;;;;;;0.00;0.00;;;;;;;14.72;54.98;99405.47;5059755;28;20116;-75
2024/01/05 07:41:05;;;;;;;0.00;0.00;;;;;;;14.81;54.79;99398.03;5048474;28;20029;-75
2024/01/05 07:43:31;;;;;;;0.00;0.00;;;;;;;14.37;56.13;99400.16;5056514;28;20044;-75
2024/01/05 07:45:56;;;;;;;0.03;0.03;;;;;;;14.35;56.65;99401.16;5051109;28;20026;-76
2024/01/05 07:48:22;;;;;;;0.00;0.00;;;;;;;13.95;57.06;99398.63;5062478;28;20024;-75
2024/01/05 07:50:48;;;;;;;0.00;0.00;;;;;;;14.61;56.11;99397.25;5065168;28;20029;-75
2024/01/05 07:53:14;;;;;;;0.00;0.00;;;;;;;14.82;55.05;99394.50;5040681;28;20436;-76
2024/01/05 07:55:39;;;;;;;0.00;0.00;;;;;;;14.97;55.00;99393.72;5057934;28;20024;-76
2024/01/05 07:58:04;;;;;;;0.20;0.20;;;;;;;14.30;56.23;99385.63;5046835;28;20393;-76
2024/01/05 08:00:31;;;;;;;0.00;0.00;;;;;;;14.08;57.11;99389.25;5047723;28;20056;-76
2024/01/05 08:02:57;;;;;;;0.00;0.00;;;;;;;13.98;58.04;99387.13;5037698;28;20389;-75
2024/01/05 08:05:23;;;;;;;0.00;0.00;;;;;;;13.82;59.31;99387.00;5030027;28;20432;-76
2024/01/05 08:07:48;;;;;;;0.00;0.00;;;;;;;13.65;58.83;99380.75;5045959;28;20247;-75
2024/01/05 08:10:14;;;;;;;0.07;0.07;;;;;;;14.30;58.18;99388.25;5044830;28;20041;-75
2024/01/05 08:12:39;;;;;;;0.00;0.00;;;;;;;14.08;58.47;99378.75;5045797;28;20040;-76
2024/01/05 08:15:05;;;;;;;0.00;0.00;;;;;;;13.74;59.68;99375.06;5062326;28;20054;-75
2024/01/05 08:17:30;;;;;;;0.00;0.00;;;;;;;13.60;60.11;99382.75;5047096;28;20036;-75
2024/01/05 08:19:56;;;;;;;0.00;0.00;;;;;;;13.31;60.85;99374.38;5048136;28;20033;-75
2024/01/05 08:22:21;;;;;;;0.00;0.00;;;;;;;13.36;61.43;99375.03;5049118;28;20021;-75
2024/01/05 08:24:46;;;;;;;0.00;0.00;;;;;;;14.00;59.92;99375.63;5051191;28;20068;-75
2024/01/05 08:27:12;;;;;;;0.00;0.00;;;;;;;13.70;59.91;99370.88;5051658;28;20021;-75
2024/01/05 08:29:37;;;;;;;0.00;0.00;;;;;;;13.20;64.24;99364.34;5057743;28;20115;-76
2024/01/05 08:32:03;;;;;;;0.40;0.40;;;;;;;13.05;62.86;99373.75;5045098;28;20029;-76
2024/01/05 08:34:31;;;;;;;0.20;0.20;;;;;;;13.43;62.82;99370.38;5038722;28;20029;-76
2024/01/05 08:36:57;;;;;;;0.00;0.00;;;;;;;13.74;61.39;99367.19;5050730;28;20098;-76
2024/01/05 08:39:22;;;;;;;0.07;0.07;;;;;;;13.52;61.43;99369.97;5051064;28;20482;-76
2024/01/05 08:41:47;;;;;;;0.00;0.00;;;;;;;13.55;62.02;99361.94;5049990;28;20090;-75
2024/01/05 08:44:14;;;;;;;0.00;0.00;;;;;;;13.40;62.36;99365.25;5050850;28;20025;-75
2024/01/05 08:46:41;;;;;;;0.00;0.00;;;;;;;13.31;63.92;99371.75;5071565;28;20484;-75
2024/01/05 08:49:06;;;;;;;0.00;0.00;;;;;;;13.26;62.64;99378.97;5071350;28;20040;-76
2024/01/05 08:51:31;;;;;;;0.37;0.37;;;;;;;13.21;64.48;99366.03;5050617;28;20028;-75
2024/01/05 08:53:58;;;;;;;0.00;0.00;;;;;;;13.35;63.45;99356.72;5047464;28;20037;-76
2024/01/05 08:56:24;;;;;;;0.00;0.00;;;;;;;14.03;60.92;99367.59;5057326;28;20594;-75
2024/01/05 08:58:50;;;;;;;0.00;0.00;;;;;;;13.79;60.45;99361.72;5048420;28;20013;-75
2024/01/05 09:01:15;;;;;;;0.00;0.00;;;;;;;13.86;60.83;99367.53;5057382;28;20520;-76
2024/01/05 09:03:40;;;;;;;0.03;0.03;;;;;;;13.92;61.01;99356.75;5051545;28;20025;-75
2024/01/05 09:06:06;;;;;;;0.17;0.13;;;;;;;13.50;62.32;99365.69;5078603;28;20032;-75
2024/01/05 09:08:32;;;;;;;0.00;0.00;;;;;;;14.07;60.73;99363.91;5059521;28;20108;-75
2024/01/05 09:10:57;;;;;;;0.00;0.00;;;;;;;13.73;61.47;99370.75;5053188;28;20016;-75
2024/01/05 09:13:22;;;;;;;0.00;0.00;;;;;;;13.60;61.27;99369.63;5050277;28;20417;-75
2024/01/05 09:15:50;;;;;;;0.00;0.00;;;;;;;13.78;61.30;99364.41;5058208;28;20363;-75
2024/01/05 09:18:15;;;;;;;0.00;0.00;;;;;;;12.41;66.30;99369.44;5064958;28;20028;-75
2024/01/05 09:20:41;;;;;;;0.10;0.10;;;;;;;13.37;62.84;99371.50;5054129;28;20395;-75
2024/01/05 09:23:06;;;;;;;0.00;0.00;;;;;;;12.84;64.16;99372.88;5046965;28;20021;-76
2024/01/05 09:25:32;;;;;;;0.00;0.00;;;;;;;13.14;65.10;99364.63;5041073;28;20099;-75
2024/01/05 09:28:01;;;;;;;0.00;0.00;;;;;;;13.03;65.28;99367.69;5055992;28;20028;-75
2024/01/05 09:30:26;;;;;;;0.10;0.10;;;;;;;13.18;64.31;99376.69;5050539;28;20077;-75
2024/01/05 09:32:52;;;;;;;0.00;0.00;;;;;;;13.70;62.73;99377.94;5064699;28;20021;-74
2024/01/05 09:35:18;;;;;;;0.00;0.00;;;;;;;13.64;63.30;99371.19;5052712;28;20031;-75
2024/01/05 09:37:43;;;;;;;0.00;0.00;;;;;;;13.34;63.78;99376.84;5049680;28;20100;-76
2024/01/05 09:40:10;;;;;;;0.00;0.00;;;;;;;13.90;61.95;99376.97;5045437;28;20029;-75
2024/01/05 09:42:47;;;;;;;0.00;0.00;;;;;;;13.65;62.46;99380.75;5033110;28;20128;-75
2024/01/05 09:45:13;;;;;;;0.00;0.00;;;;;;;13.56;63.21;99386.44;5054761;28;20025;-74
2024/01/05 09:47:39;;;;;;;0.00;0.00;;;;;;;13.70;63.74;99381.38;5055107;28;20036;-75
2024/01/05 09:50:06;;;;;;;0.00;0.00;;;;;;;14.10;60.34;99381.31;5046138;28;20045;-75
2024/01/05 09:52:31;;;;;;;0.07;0.07;;;;;;;13.82;61.86;99377.34;5048178;28;20033;-74
2024/01/05 09:54:57;;;;;;;0.00;0.00;;;;;;;13.42;63.40;99394.91;5049495;28;20400;-75
2024/01/05 09:57:24;;;;;;;0.00;0.00;;;;;;;13.23;64.56;99389.63;5050192;28;20021;-76
2024/01/05 09:59:50;;;;;;;0.40;0.40;;;;;;;13.82;61.99;99397.50;5049213;28;20090;-74
2024/01/05 10:02:24;;;;;;;0.20;0.20;;;;;;;13.63;62.61;99382.59;5049304;28;20017;-75
2024/01/05 10:04:50;;;;;;;0.00;0.00;;;;;;;14.32;61.14;99383.75;5049839;28;20025;-78
2024/01/05 10:07:15;;;;;;;0.00;0.00;;;;;;;14.02;61.05;99388.69;5064616;28;20021;-74
2024/01/05 10:09:52;;;;;;;0.00;0.00;;;;;;;14.24;60.71;99389.34;5050045;28;20017;-76
2024/01/05 10:12:20;;;;;;;0.00;0.00;;;;;;;14.34;59.75;99384.53;5050054;28;20045;-76
2024/01/05 10:14:49;;;;;;;0.00;0.00;;;;;;;14.52;59.51;99382.78;5050229;28;20079;-76
2024/01/05 10:17:18;;;;;;;0.00;0.00;;;;;;;13.86;61.85;99378.91;5048797;28;20027;-77
2024/01/05 10:19:43;;;;;;;0.97;0.97;;;;;;;14.60;60.10;99369.22;5050992;28;20571;-76
2024/01/05 10:22:14;;;;;;;0.30;0.30;;;;;;;14.73;58.61;99365.09;5057550;28;20024;-76
2024/01/05 10:24:40;;;;;;;0.00;0.00;;;;;;;13.81;62.09;99359.06;5048523;28;20017;-77
2024/01/05 10:27:10;;;;;;;0.00;0.00;;;;;;;14.71;59.59;99359.09;5045751;28;20228;-77
2024/01/05 10:29:38;;;;;;;0.00;0.00;;;;;;;14.49;59.86;99351.34;5045390;28;20552;-76
2024/01/05 10:32:13;;;;;;;0.10;0.10;;;;;;;14.19;62.83;99340.59;5042898;28;20025;-77
2024/01/05 10:34:40;;;;;;;0.00;0.00;;;;;;;13.80;62.95;99349.47;5045789;28;20025;-77
2024/01/05 10:37:07;;;;;;;0.10;0.10;;;;;;;14.38;61.64;99323.00;5048108;28;20023;-76
2024/01/05 10:39:32;;;;;;;0.00;0.00;;;;;;;14.04;63.48;99329.91;5037899;28;20472;-76
2024/01/05 10:42:18;;;;;;;0.00;0.00;;;;;;;13.94;64.16;99328.63;5054960;28;20055;-78
2024/01/05 10:44:47;;;;;;;0.00;0.00;;;;;;;13.36;65.08;99335.69;5054964;28;20029;-77
2024/01/05 10:47:18;;;;;;;0.00;0.00;;;;;;;14.05;64.75;99313.22;5049668;28;20021;-77
2024/01/05 10:49:51;;;;;;;0.00;0.00;;;;;;;13.73;65.35;99305.09;5052566;28;20033;-77
2024/01/05 10:52:18;;;;;;;0.00;0.00;;;;;;;13.96;64.80;99310.16;5057040;28;20563;-76
2024/01/05 10:54:48;;;;;;;0.00;0.00;;;;;;;13.32;65.33;99326.19;5070469;28;20027;-78
2024/01/05 10:57:16;;;;;;;0.00;0.00;;;;;;;14.28;63.68;99316.50;5054974;28;20087;-78
2024/01/05 10:59:52;;;;;;;0.00;0.00;;;;;;;13.39;67.69;99317.19;5070591;28;20044;-76
2024/01/05 11:02:19;;;;;;;0.00;0.00;;;;;;;13.61;65.71;99310.91;5041195;28;20036;-77
2024/01/05 11:04:47;;;;;;;0.00;0.00;;;;;;;13.76;65.70;99303.25;5043404;28;20029;-77
2024/01/05 11:07:16;;;;;;;3.70;1.40;;;;;;;13.72;66.52;99306.03;5045414;28;20052;-77
2024/01/05 11:10:01;;;;;;;0.00;0.00;;;;;;;13.63;68.69;99301.22;5055778;28;20116;-77
2024/01/05 11:12:45;;;;;;;0.00;0.00;;;;;;;13.43;69.86;99309.16;5048255;28;20119;-77
2024/01/05 11:15:36;;;;;;;0.00;0.00;;;;;;;14.17;65.04;99305.66;5036876;28;20033;-76
2024/01/05 11:18:13;;;;;;;0.00;0.00;;;;;;;13.68;70.16;99308.88;5056749;28;20078;-77
2024/01/05 11:21:02;;;;;;;0.00;0.00;;;;;;;13.78;67.88;99304.03;5044966;28;20111;-77
2024/01/05 11:23:31;;;;;;;0.00;0.00;;;;;;;14.31;66.16;99304.97;5047919;28;20021;-76
2024/01/05 11:25:56;;;;;;;0.00;0.00;;;;;;;13.90;67.82;99309.56;5033259;28;20036;-76
2024/01/05 11:28:36;;;;;;;0.13;0.13;;;;;;;14.31;66.55;99313.69;5044343;28;20385;-77
2024/01/05 11:31:02;;;;;;;0.00;0.00;;;;;;;13.78;69.97;99317.16;5044392;28;20531;-76